Time,TemperatureF,DewpointF,PressureIn,WindDirection,WindDirectionDegrees,WindSpeedMPH,WindSpeedGustMPH,Humidity,HourlyPrecipIn,Conditions,Clouds,dailyrainin,SoftwareType,DateUTC
2013-03-23 00:11:00,37.1,25.0,30.03,ESE,114,2.0,4.0,63,0.00,,,0.00,weatherlink.com 1.10,2013-03-23 05:11:00,
2013-03-23 00:26:00,37.0,25.0,30.03,ENE,77,0.0,3.0,63,0.00,,,0.00,weatherlink.com 1.10,2013-03-23 05:26:00,
2013-03-23 00:41:00,37.0,25.0,30.02,NE,51,2.0,4.0,63,0.00,,,0.00,weatherlink.com 1.10,2013-03-23 05:41:00,
2013-03-23 01:11:00,36.8,26.0,30.02,ENE,77,2.0,3.0,65,0.00,,,0.00,weatherlink.com 1.10,2013-03-23 06:11:00,
2013-03-23 01:26:00,36.6,25.0,30.02,East,84,1.0,2.0,64,0.00,,,0.00,weatherlink.com 1.10,2013-03-23 06:26:00,
2013-03-23 01:41:00,36.6,26.0,30.03,NE,56,0.0,2.0,66,0.00,,,0.00,weatherlink.com 1.10,2013-03-23 06:41:00,
2013-03-23 01:56:00,36.5,26.0,30.03,SE,134,0.0,1.0,66,0.00,,,0.00,weatherlink.com 1.10,2013-03-23 06:56:00,
2013-03-23 02:11:00,36.3,25.0,30.03,SE,132,0.0,1.0,65,0.00,,,0.00,weatherlink.com 1.10,2013-03-23 07:11:00,
2013-03-23 02:41:00,36.1,26.0,30.03,SE,130,0.0,1.0,66,0.00,,,0.00,weatherlink.com 1.10,2013-03-23 07:41:00,
2013-03-23 02:56:00,36.1,26.0,30.03,SE,129,0.0,1.0,66,0.00,,,0.00,weatherlink.com 1.10,2013-03-23 07:56:00,
2013-03-23 03:11:00,36.2,26.0,30.02,ESE,113,0.0,1.0,67,0.00,,,0.00,weatherlink.com 1.10,2013-03-23 08:11:00,
2013-03-23 03:26:00,36.1,26.0,30.02,NE,44,0.0,1.0,68,0.00,,,0.00,weatherlink.com 1.10,2013-03-23 08:26:00,
2013-03-23 03:41:00,35.9,27.0,30.01,NE,46,0.0,1.0,69,0.00,,,0.00,weatherlink.com 1.10,2013-03-23 08:41:00,
2013-03-23 03:56:00,35.9,26.0,30.00,ENE,67,1.0,1.0,68,0.00,,,0.00,weatherlink.com 1.10,2013-03-23 08:56:00,
2013-03-23 04:11:00,36.0,26.0,30.01,NNE,33,0.0,1.0,68,0.00,,,0.00,weatherlink.com 1.10,2013-03-23 09:11:00,
2013-03-23 04:26:00,35.9,26.0,30.01,East,80,1.0,2.0,68,0.00,,,0.00,weatherlink.com 1.10,2013-03-23 09:26:00,
2013-03-23 04:42:00,35.9,26.0,30.01,NNE,20,0.0,2.0,68,0.00,,,0.00,weatherlink.com 1.10,2013-03-23 09:42:00,
2013-03-23 04:56:00,36.0,26.0,30.01,NE,44,0.0,3.0,68,0.00,,,0.00,weatherlink.com 1.10,2013-03-23 09:56:00,
2013-03-23 05:11:00,35.9,27.0,30.01,NE,47,2.0,2.0,69,0.00,,,0.00,weatherlink.com 1.10,2013-03-23 10:11:00,
2013-03-23 05:26:00,36.0,26.0,30.00,East,79,3.0,4.0,68,0.00,,,0.00,weatherlink.com 1.10,2013-03-23 10:26:00,
2013-03-23 05:41:00,36.0,26.0,30.01,ENE,67,2.0,4.0,66,0.00,,,0.00,weatherlink.com 1.10,2013-03-23 10:41:00,
2013-03-23 05:56:00,36.0,26.0,30.02,East,88,1.0,4.0,66,0.00,,,0.00,weatherlink.com 1.10,2013-03-23 10:56:00,
2013-03-23 06:12:00,36.0,26.0,30.02,ENE,74,1.0,3.0,67,0.00,,,0.00,weatherlink.com 1.10,2013-03-23 11:12:00,
2013-03-23 06:27:00,35.9,26.0,30.03,NE,51,1.0,2.0,67,0.00,,,0.00,weatherlink.com 1.10,2013-03-23 11:27:00,
2013-03-23 06:42:00,35.8,26.0,30.03,East,82,1.0,4.0,67,0.00,,,0.00,weatherlink.com 1.10,2013-03-23 11:42:00,
2013-03-23 06:57:00,35.8,26.0,30.04,ENE,59,0.0,1.0,67,0.00,,,0.00,weatherlink.com 1.10,2013-03-23 11:57:00,
2013-03-23 07:12:00,35.7,26.0,30.04,ENE,63,0.0,1.0,68,0.00,,,0.00,weatherlink.com 1.10,2013-03-23 12:12:00,
2013-03-23 07:27:00,35.7,26.0,30.04,ENE,74,0.0,2.0,69,0.00,,,0.00,weatherlink.com 1.10,2013-03-23 12:27:00,
2013-03-23 07:42:00,35.9,26.0,30.04,NNE,28,2.0,2.0,68,0.00,,,0.00,weatherlink.com 1.10,2013-03-23 12:42:00,
2013-03-23 07:57:00,36.2,26.0,30.05,ENE,61,2.0,3.0,67,0.00,,,0.00,weatherlink.com 1.10,2013-03-23 12:57:00,
2013-03-23 08:12:00,36.6,26.0,30.05,NE,42,2.0,4.0,66,0.00,,,0.00,weatherlink.com 1.10,2013-03-23 13:12:00,
2013-03-23 08:27:00,36.9,26.0,30.06,ENE,63,3.0,4.0,66,0.00,,,0.00,weatherlink.com 1.10,2013-03-23 13:27:00,
2013-03-23 08:42:00,37.2,26.0,30.06,ENE,72,2.0,5.0,64,0.00,,,0.00,weatherlink.com 1.10,2013-03-23 13:42:00,
2013-03-23 08:57:00,37.6,26.0,30.06,ESE,106,1.0,5.0,64,0.00,,,0.00,weatherlink.com 1.10,2013-03-23 13:57:00,
2013-03-23 09:12:00,38.1,26.0,30.05,NE,41,3.0,7.0,62,0.00,,,0.00,weatherlink.com 1.10,2013-03-23 14:12:00,
2013-03-23 09:27:00,38.8,26.0,30.04,ENE,74,2.0,5.0,60,0.00,,,0.00,weatherlink.com 1.10,2013-03-23 14:27:00,
2013-03-23 09:42:00,39.9,26.0,30.04,NNE,22,9.0,9.0,58,0.00,,,0.00,weatherlink.com 1.10,2013-03-23 14:42:00,
2013-03-23 09:57:00,40.7,25.0,30.03,ENE,58,8.0,10.0,55,0.00,,,0.00,weatherlink.com 1.10,2013-03-23 14:57:00,
2013-03-23 10:12:00,41.0,25.0,30.03,ESE,122,6.0,12.0,53,0.00,,,0.00,weatherlink.com 1.10,2013-03-23 15:12:00,
2013-03-23 10:27:00,41.9,25.0,30.04,ENE,60,4.0,9.0,52,0.00,,,0.00,weatherlink.com 1.10,2013-03-23 15:27:00,
2013-03-23 10:42:00,42.8,26.0,30.04,ENE,58,2.0,9.0,52,0.00,,,0.00,weatherlink.com 1.10,2013-03-23 15:42:00,
2013-03-23 10:57:00,43.6,25.0,30.04,SSE,148,4.0,10.0,49,0.00,,,0.00,weatherlink.com 1.10,2013-03-23 15:57:00,
2013-03-23 11:12:00,44.1,25.0,30.04,ESE,113,4.0,11.0,48,0.00,,,0.00,weatherlink.com 1.10,2013-03-23 16:12:00,
2013-03-23 11:27:00,44.1,26.0,30.04,ENE,59,5.0,13.0,50,0.00,,,0.00,weatherlink.com 1.10,2013-03-23 16:27:00,
2013-03-23 11:42:00,44.2,27.0,30.04,NNE,27,5.0,12.0,52,0.00,,,0.00,weatherlink.com 1.10,2013-03-23 16:42:00,
2013-03-23 11:57:00,45.3,26.0,30.04,East,82,7.0,11.0,48,0.00,,,0.00,weatherlink.com 1.10,2013-03-23 16:57:00,
2013-03-23 12:12:00,46.5,27.0,30.04,NE,49,10.0,12.0,47,0.00,,,0.00,weatherlink.com 1.10,2013-03-23 17:12:00,
2013-03-23 12:27:00,47.3,27.0,30.03,East,86,3.0,11.0,46,0.00,,,0.00,weatherlink.com 1.10,2013-03-23 17:27:00,
2013-03-23 12:42:00,47.5,27.0,30.02,NE,53,6.0,10.0,46,0.00,,,0.00,weatherlink.com 1.10,2013-03-23 17:42:00,
2013-03-23 12:57:00,48.2,28.0,30.01,NE,44,8.0,10.0,45,0.00,,,0.00,weatherlink.com 1.10,2013-03-23 17:57:00,
2013-03-23 13:12:00,49.3,29.0,30.00,ESE,114,2.0,10.0,45,0.00,,,0.00,weatherlink.com 1.10,2013-03-23 18:12:00,
2013-03-23 13:27:00,50.0,29.0,29.99,East,98,7.0,13.0,44,0.00,,,0.00,weatherlink.com 1.10,2013-03-23 18:27:00,
2013-03-23 13:42:00,49.2,27.0,29.98,East,86,7.0,16.0,43,0.00,,,0.00,weatherlink.com 1.10,2013-03-23 18:42:00,
2013-03-23 13:58:00,50.5,29.0,29.98,ENE,70,3.0,12.0,43,0.00,,,0.00,weatherlink.com 1.10,2013-03-23 18:58:00,
2013-03-23 14:13:00,50.5,29.0,29.97,SSE,162,4.0,12.0,44,0.00,,,0.00,weatherlink.com 1.10,2013-03-23 19:13:00,
2013-03-23 14:28:00,51.5,29.0,29.96,SE,127,8.0,11.0,43,0.00,,,0.00,weatherlink.com 1.10,2013-03-23 19:28:00,
2013-03-23 14:43:00,51.6,30.0,29.95,East,99,3.0,9.0,44,0.00,,,0.00,weatherlink.com 1.10,2013-03-23 19:43:00,
2013-03-23 14:58:00,51.6,31.0,29.94,ENE,57,5.0,12.0,46,0.00,,,0.00,weatherlink.com 1.10,2013-03-23 19:58:00,
2013-03-23 15:13:00,52.3,32.0,29.93,East,99,5.0,8.0,46,0.00,,,0.00,weatherlink.com 1.10,2013-03-23 20:13:00,
2013-03-23 15:28:00,51.8,32.0,29.92,ESE,105,6.0,11.0,47,0.00,,,0.00,weatherlink.com 1.10,2013-03-23 20:28:00,
2013-03-23 15:43:00,51.4,32.0,29.90,ESE,114,3.0,16.0,47,0.00,,,0.00,weatherlink.com 1.10,2013-03-23 20:43:00,
2013-03-23 15:58:00,51.2,32.0,29.89,ENE,63,3.0,14.0,48,0.00,,,0.00,weatherlink.com 1.10,2013-03-23 20:58:00,
2013-03-23 16:13:00,51.1,32.0,29.90,ENE,67,7.0,15.0,48,0.00,,,0.00,weatherlink.com 1.10,2013-03-23 21:13:00,
2013-03-23 16:28:00,51.9,33.0,29.88,South,170,2.0,12.0,48,0.00,,,0.00,weatherlink.com 1.10,2013-03-23 21:28:00,
2013-03-23 16:43:00,51.8,33.0,29.88,East,79,3.0,14.0,49,0.00,,,0.00,weatherlink.com 1.10,2013-03-23 21:43:00,
2013-03-23 17:00:00,51.6,32.0,29.88,ENE,68,8.0,16.0,48,0.00,,,0.00,weatherlink.com 1.10,2013-03-23 22:00:00,
2013-03-23 17:13:00,50.9,32.0,29.87,ESE,110,6.0,12.0,49,0.00,,,0.00,weatherlink.com 1.10,2013-03-23 22:13:00,
2013-03-23 17:28:00,51.0,32.0,29.86,SE,142,2.0,10.0,49,0.00,,,0.00,weatherlink.com 1.10,2013-03-23 22:28:00,
2013-03-23 17:45:00,50.4,32.0,29.86,East,86,3.0,15.0,49,0.00,,,0.00,weatherlink.com 1.10,2013-03-23 22:45:00,
2013-03-23 17:59:00,50.0,31.0,29.87,ESE,120,8.0,11.0,49,0.00,,,0.00,weatherlink.com 1.10,2013-03-23 22:59:00,
2013-03-23 18:14:00,49.8,32.0,29.88,East,84,3.0,7.0,50,0.00,,,0.00,weatherlink.com 1.10,2013-03-23 23:14:00,
2013-03-23 18:29:00,49.7,32.0,29.87,East,92,6.0,11.0,51,0.00,,,0.00,weatherlink.com 1.10,2013-03-23 23:29:00,
2013-03-23 18:44:00,49.6,32.0,29.88,NE,49,2.0,7.0,52,0.00,,,0.00,weatherlink.com 1.10,2013-03-23 23:44:00,
2013-03-23 18:59:00,49.0,32.0,29.87,East,98,3.0,9.0,53,0.00,,,0.00,weatherlink.com 1.10,2013-03-23 23:59:00,
2013-03-23 19:14:00,48.8,33.0,29.86,ENE,71,5.0,8.0,54,0.00,,,0.00,weatherlink.com 1.10,2013-03-24 00:14:00,
2013-03-23 19:29:00,48.7,32.0,29.85,ENE,70,4.0,9.0,53,0.00,,,0.00,weatherlink.com 1.10,2013-03-24 00:29:00,
2013-03-23 19:44:00,48.7,32.0,29.85,East,79,7.0,10.0,52,0.00,,,0.00,weatherlink.com 1.10,2013-03-24 00:44:00,
2013-03-23 19:59:00,47.0,34.0,29.84,NE,41,3.0,15.0,62,0.00,,,0.00,weatherlink.com 1.10,2013-03-24 00:59:00,
2013-03-23 20:14:00,47.1,33.0,29.84,ESE,122,5.0,8.0,58,0.00,,,0.00,weatherlink.com 1.10,2013-03-24 01:14:00,
2013-03-23 20:29:00,47.4,33.0,29.84,SE,129,5.0,13.0,58,0.00,,,0.00,weatherlink.com 1.10,2013-03-24 01:29:00,
2013-03-23 20:44:00,47.3,34.0,29.85,ENE,77,3.0,9.0,60,0.00,,,0.00,weatherlink.com 1.10,2013-03-24 01:44:00,
2013-03-23 20:59:00,46.3,35.0,29.85,NE,49,4.0,5.0,64,0.00,,,0.00,weatherlink.com 1.10,2013-03-24 01:59:00,
2013-03-23 21:14:00,46.4,34.0,29.84,ENE,58,3.0,7.0,62,0.00,,,0.00,weatherlink.com 1.10,2013-03-24 02:14:00,
2013-03-23 21:29:00,46.4,34.0,29.85,East,86,2.0,6.0,62,0.00,,,0.00,weatherlink.com 1.10,2013-03-24 02:29:00,
2013-03-23 21:44:00,46.5,34.0,29.85,ENE,67,3.0,11.0,62,0.00,,,0.00,weatherlink.com 1.10,2013-03-24 02:44:00,
2013-03-23 21:59:00,46.4,33.0,29.85,ENE,65,0.0,10.0,61,0.00,,,0.00,weatherlink.com 1.10,2013-03-24 02:59:00,
2013-03-23 22:14:00,46.3,32.0,29.87,NE,49,3.0,9.0,59,0.00,,,0.00,weatherlink.com 1.10,2013-03-24 03:14:00,
2013-03-23 22:29:00,46.0,33.0,29.87,ENE,60,2.0,7.0,60,0.00,,,0.00,weatherlink.com 1.10,2013-03-24 03:29:00,
2013-03-23 22:44:00,45.7,31.0,29.86,East,96,3.0,12.0,56,0.00,,,0.00,weatherlink.com 1.10,2013-03-24 03:44:00,
2013-03-23 22:59:00,45.4,31.0,29.86,East,91,5.0,16.0,57,0.00,,,0.00,weatherlink.com 1.10,2013-03-24 03:59:00,
2013-03-23 23:14:00,44.9,31.0,29.87,ENE,68,3.0,8.0,58,0.00,,,0.00,weatherlink.com 1.10,2013-03-24 04:14:00,
2013-03-23 23:29:00,44.0,32.0,29.87,SE,129,4.0,10.0,62,0.00,,,0.00,weatherlink.com 1.10,2013-03-24 04:29:00,
2013-03-23 23:44:00,43.2,31.0,29.87,SE,129,4.0,15.0,63,0.00,,,0.00,weatherlink.com 1.10,2013-03-24 04:44:00,
2013-03-23 23:59:00,42.6,32.0,29.86,ENE,58,14.0,18.0,66,0.00,,,0.00,weatherlink.com 1.10,2013-03-24 04:59:00,